This is the latest recevied weather packets stored in our database for station/object NR5ON-13. If no packets are shown the sender has not sent any weather packets the latest 1 day(s).
| Time | Temp. | Humidity | Pressure | Rain* | Wind** | Luminosity | Snow |
|---|---|---|---|---|---|---|---|
| 1778007806 | 12.78° C | 53% | 1013.2 hPa | 0 mm | 0.89 m/s, 257° | - | - |
| 1778007511 | 12.78° C | 55% | 1013.2 hPa | 0 mm | 0.89 m/s, 250° | - | - |
| 1778007216 | 13.33° C | 51% | 1013.3 hPa | 0 mm | 2.24 m/s, 199° | - | - |
| 1778006901 | 13.89° C | 43% | 1013.2 hPa | 0 mm | 2.68 m/s, 202° | - | - |
| 1778006610 | 13.89° C | 43% | 1013 hPa | 0 mm | 1.34 m/s, 190° | - | - |
| 1778006315 | 13.89° C | 40% | 1013 hPa | 0 mm | 1.34 m/s, 140° | - | - |
| 1778006020 | 13.89° C | 40% | 1013.3 hPa | 0 mm | 1.79 m/s, 158° | - | - |
| 1778005708 | 13.89° C | 40% | 1013.1 hPa | 0 mm | 1.34 m/s, 243° | - | - |
| 1778005413 | 13.89° C | 39% | 1013.2 hPa | 0 mm | 1.34 m/s, 189° | - | - |
| 1778005118 | 13.89° C | 38% | 1013.1 hPa | 0 mm | 1.34 m/s, 192° | - | - |
| 1778004806 | 13.89° C | 39% | 1013 hPa | 0 mm | 2.24 m/s, 186° | - | - |
| 1778004512 | 13.33° C | 40% | 1013.1 hPa | 0 mm | 0.45 m/s, 168° | - | - |
| 1778004217 | 13.33° C | 40% | 1013.1 hPa | 0 mm | 0.45 m/s, 178° | - | - |
| 1778003923 | 13.33° C | 40% | 1013.2 hPa | 0 mm | 0.89 m/s, 95° | - | - |
| 1778003608 | 12.78° C | 40% | 1013.2 hPa | 0 mm | 0.89 m/s, 163° | - | - |
| 1778003313 | 12.78° C | 40% | 1013.4 hPa | 0 mm | 1.34 m/s, 134° | - | - |
| 1778003018 | 12.78° C | 40% | 1013.6 hPa | 0 mm | 0.89 m/s, 172° | - | - |
| 1778002707 | 12.78° C | 40% | 1013.6 hPa | 0 mm | 0.45 m/s, 171° | - | - |
| 1778002412 | 13.33° C | 39% | 1013.7 hPa | 0 mm | 1.34 m/s, 198° | - | - |
| 1778002119 | 12.78° C | 41% | 1013.6 hPa | 0 mm | 0.45 m/s, 82° | - | - |
| 1778001807 | 12.78° C | 40% | 1013.5 hPa | 0 mm | 0.89 m/s, 81° | - | - |
| 1778001512 | 12.78° C | 40% | 1013.6 hPa | 0 mm | 0.89 m/s, 118° | - | - |
| 1778001217 | 12.78° C | 41% | 1013.7 hPa | 0 mm | 1.34 m/s, 150° | - | - |
| 1778000922 | 12.78° C | 40% | 1013.7 hPa | 0 mm | 1.79 m/s, 108° | - | - |
| 1778000607 | 12.22° C | 41% | 1013.7 hPa | 0 mm | 1.34 m/s, 92° | - | - |
* Rain latest hour (hover to see other rain measurements)
** Current wind speed in m/s (hover to see current wind gust speed)